Terminal Aerodrome Forecast
Issued by NWS

Home | Current Version | Previous Version | Text Only | Print | Product List | Glossary On
Versions: 1 2 3 4 5 6 7 8 9 10 11 12 13 14 15 16 17 18 19 20 21
000
FTUS42 KTBW 031500 AAB
TAFLAL
TAF AMD
KLAL 031514Z 0315/0412 10008KT P6SM BKN008
     FM031600 11007KT P6SM SCT015
     FM031700 12008KT P6SM SCT035
     FM032300 11005KT P6SM FEW050
     FM040100 VRB03KT P6SM SCT250
     FM040600 VRB03KT 3SM BR SCT010 SCT250=

USA.gov is the U.S. government's official web portal to all federal, state and local government web resources and services.